RYR84KK LEAM-EBCI
Flight info
| Callsign | RYR84KK |
|---|---|
| Flight time | 2h 40m |
| Altitude | 40000 |
| Route | AGIDO M192 ARPEX DCT BAZAS M192 BLN N865 VTB N867 RBO DCT OSTIX N867 DGO L176 LUSEM/N0427F340 DCT LULUT DCT ADABI DCT BOKNO UN858 VANAD UN874 BAMES UT191 PODEM UN873 BAZOS DCT BELDI DCT VEKIN Z173 ARVOL |
| Aircraft | B38M/M-SDE1FGHILORVWXY/HB1 |
Departure
| Time | 2026-05-06 10:47 |
|---|---|
| Airport | Almería Airport (LEAM) |
Arrival
| Time | 2026-05-06 13:28 |
|---|---|
| Airport | Brussels South Charleroi Airport (EBCI) |
| Time | Latitude | Longitude | Altitude | Speed | Heading |
|---|---|---|---|---|---|
| 2026-05-06 10:13 | 36.84546 | -2.37754 | 50 ft | 0 kts | 351° |
| 2026-05-06 10:37 | 36.84544 | -2.37754 | 50 ft | 4 kts | 5° |
| 2026-05-06 10:37 | 36.84547 | -2.37754 | 50 ft | 2 kts | 187° |
| 2026-05-06 10:37 | 36.84562 | -2.37752 | 47 ft | 4 kts | 161° |
| 2026-05-06 10:38 | 36.84563 | -2.37752 | 48 ft | 1 kts | 153° |
| 2026-05-06 10:41 | 36.84556 | -2.37748 | 46 ft | 3 kts | 153° |
| 2026-05-06 10:41 | 36.84529 | -2.37721 | 51 ft | 5 kts | 119° |
| 2026-05-06 10:41 | 36.84533 | -2.37675 | 51 ft | 6 kts | 72° |
| 2026-05-06 10:42 | 36.84547 | -2.37622 | 52 ft | 7 kts | 73° |
| 2026-05-06 10:42 | 36.84552 | -2.37556 | 49 ft | 9 kts | 105° |
| 2026-05-06 10:42 | 36.84536 | -2.37467 | 54 ft | 13 kts | 81° |
| 2026-05-06 10:42 | 36.84509 | -2.37374 | 55 ft | 12 kts | 136° |
| 2026-05-06 10:43 | 36.84505 | -2.37269 | 53 ft | 13 kts | 71° |
| 2026-05-06 10:43 | 36.84534 | -2.37155 | 58 ft | 14 kts | 73° |
| 2026-05-06 10:43 | 36.84563 | -2.37030 | 57 ft | 16 kts | 73° |
| 2026-05-06 10:44 | 36.84638 | -2.36731 | 63 ft | 23 kts | 73° |
| 2026-05-06 10:44 | 36.84686 | -2.36537 | 63 ft | 24 kts | 72° |
| 2026-05-06 10:44 | 36.84735 | -2.36334 | 69 ft | 25 kts | 73° |
| 2026-05-06 10:44 | 36.84787 | -2.36124 | 64 ft | 26 kts | 73° |
| 2026-05-06 10:45 | 36.84840 | -2.35907 | 71 ft | 26 kts | 73° |
| 2026-05-06 10:45 | 36.84895 | -2.35684 | 77 ft | 27 kts | 73° |
| 2026-05-06 10:45 | 36.84945 | -2.35477 | 83 ft | 16 kts | 76° |
| 2026-05-06 10:45 | 36.84921 | -2.35346 | 81 ft | 16 kts | 135° |
| 2026-05-06 10:46 | 36.84832 | -2.35317 | 82 ft | 11 kts | 193° |
| 2026-05-06 10:46 | 36.84790 | -2.35402 | 81 ft | 14 kts | 253° |
| 2026-05-06 10:46 | 36.84743 | -2.35599 | 77 ft | 51 kts | 253° |
| 2026-05-06 10:46 | 36.84561 | -2.36339 | 63 ft | 125 kts | 253° |
| 2026-05-06 10:47 | 36.84248 | -2.37592 | 123 ft | 176 kts | 252° |
| 2026-05-06 10:47 | 36.83842 | -2.39214 | 484 ft | 211 kts | 251° |
| 2026-05-06 10:47 | 36.83409 | -2.40978 | 1631 ft | 205 kts | 251° |
| 2026-05-06 10:47 | 36.82951 | -2.42767 | 2503 ft | 226 kts | 251° |
| 2026-05-06 10:48 | 36.82439 | -2.44648 | 3586 ft | 228 kts | 251° |
| 2026-05-06 10:48 | 36.81936 | -2.46447 | 4917 ft | 217 kts | 251° |
| 2026-05-06 10:48 | 36.81425 | -2.48220 | 5974 ft | 218 kts | 251° |
| 2026-05-06 10:48 | 36.80904 | -2.50015 | 6911 ft | 221 kts | 251° |
| 2026-05-06 10:49 | 36.80202 | -2.51728 | 7755 ft | 227 kts | 228° |
| 2026-05-06 10:49 | 36.78822 | -2.52653 | 8154 ft | 234 kts | 189° |
| 2026-05-06 10:49 | 36.77174 | -2.52479 | 8330 ft | 248 kts | 166° |
| 2026-05-06 10:49 | 36.75669 | -2.51391 | 8377 ft | 258 kts | 134° |
| 2026-05-06 10:50 | 36.74829 | -2.49411 | 8397 ft | 263 kts | 102° |
| 2026-05-06 10:50 | 36.74743 | -2.47119 | 8431 ft | 267 kts | 89° |
| 2026-05-06 10:50 | 36.74720 | -2.44799 | 8444 ft | 268 kts | 92° |
| 2026-05-06 10:50 | 36.74667 | -2.42468 | 8451 ft | 268 kts | 92° |
| 2026-05-06 10:51 | 36.74605 | -2.40170 | 8448 ft | 268 kts | 92° |
| 2026-05-06 10:51 | 36.74698 | -2.37831 | 8663 ft | 274 kts | 71° |
| 2026-05-06 10:51 | 36.75717 | -2.35813 | 9333 ft | 284 kts | 37° |
| 2026-05-06 10:51 | 36.77495 | -2.34731 | 9921 ft | 290 kts | 6° |
| 2026-05-06 10:52 | 36.79546 | -2.34558 | 10450 ft | 303 kts | 354° |
| 2026-05-06 10:52 | 36.81605 | -2.35125 | 11063 ft | 307 kts | 331° |
| 2026-05-06 10:52 | 36.83441 | -2.36520 | 11722 ft | 314 kts | 324° |
| 2026-05-06 10:52 | 36.85344 | -2.37910 | 12633 ft | 317 kts | 326° |
| 2026-05-06 10:53 | 36.87273 | -2.39294 | 13514 ft | 322 kts | 325° |
| 2026-05-06 10:53 | 36.89230 | -2.40703 | 14331 ft | 326 kts | 325° |
| 2026-05-06 10:53 | 36.91184 | -2.42111 | 15129 ft | 330 kts | 324° |
| 2026-05-06 10:53 | 36.93188 | -2.43558 | 15942 ft | 334 kts | 324° |
| 2026-05-06 10:54 | 36.95215 | -2.45022 | 16735 ft | 337 kts | 324° |
| 2026-05-06 10:54 | 36.97261 | -2.46502 | 17506 ft | 341 kts | 324° |
| 2026-05-06 10:54 | 36.99334 | -2.48002 | 18231 ft | 345 kts | 324° |
| 2026-05-06 10:54 | 37.01426 | -2.49517 | 18872 ft | 349 kts | 324° |
| 2026-05-06 10:55 | 37.03536 | -2.51045 | 19504 ft | 352 kts | 324° |
| 2026-05-06 10:55 | 37.05644 | -2.52574 | 20130 ft | 356 kts | 323° |
| 2026-05-06 10:55 | 37.07795 | -2.54134 | 20759 ft | 359 kts | 323° |
| 2026-05-06 10:55 | 37.09971 | -2.55714 | 21364 ft | 362 kts | 323° |
| 2026-05-06 10:56 | 37.12166 | -2.57308 | 21983 ft | 365 kts | 323° |
| 2026-05-06 10:56 | 37.14381 | -2.58919 | 22596 ft | 369 kts | 323° |
| 2026-05-06 10:56 | 37.16587 | -2.60524 | 23156 ft | 372 kts | 323° |
| 2026-05-06 10:56 | 37.18844 | -2.62169 | 23716 ft | 375 kts | 322° |
| 2026-05-06 10:57 | 37.20932 | -2.64076 | 24199 ft | 370 kts | 313° |
| 2026-05-06 10:57 | 37.22925 | -2.66169 | 24660 ft | 374 kts | 314° |
| 2026-05-06 10:57 | 37.24943 | -2.68247 | 25161 ft | 376 kts | 314° |
| 2026-05-06 10:57 | 37.26949 | -2.70316 | 25629 ft | 378 kts | 314° |
| 2026-05-06 10:58 | 37.28985 | -2.72421 | 26103 ft | 380 kts | 314° |
| 2026-05-06 10:58 | 37.31036 | -2.74542 | 26556 ft | 383 kts | 313° |
| 2026-05-06 10:58 | 37.33107 | -2.76687 | 27016 ft | 386 kts | 313° |
| 2026-05-06 10:58 | 37.35187 | -2.78841 | 27481 ft | 388 kts | 313° |
| 2026-05-06 10:59 | 37.37282 | -2.81014 | 27941 ft | 390 kts | 313° |
| 2026-05-06 10:59 | 37.39369 | -2.83178 | 28351 ft | 394 kts | 313° |
| 2026-05-06 10:59 | 37.41495 | -2.85382 | 28824 ft | 395 kts | 313° |
| 2026-05-06 10:59 | 37.43635 | -2.87588 | 29249 ft | 398 kts | 313° |
| 2026-05-06 11:00 | 37.45784 | -2.89806 | 29678 ft | 400 kts | 313° |
| 2026-05-06 11:00 | 37.47944 | -2.92037 | 30072 ft | 403 kts | 313° |
| 2026-05-06 11:00 | 37.50096 | -2.94262 | 30408 ft | 405 kts | 313° |
| 2026-05-06 11:00 | 37.52278 | -2.96521 | 30770 ft | 406 kts | 313° |
| 2026-05-06 11:01 | 37.54470 | -2.98790 | 31099 ft | 409 kts | 313° |
| 2026-05-06 11:01 | 37.56678 | -3.01078 | 31444 ft | 410 kts | 313° |
| 2026-05-06 11:01 | 37.58886 | -3.03371 | 31745 ft | 412 kts | 312° |
| 2026-05-06 11:01 | 37.61077 | -3.05647 | 32075 ft | 414 kts | 312° |
| 2026-05-06 11:02 | 37.63307 | -3.07965 | 32409 ft | 416 kts | 312° |
| 2026-05-06 11:02 | 37.65548 | -3.10297 | 32744 ft | 418 kts | 312° |
| 2026-05-06 11:02 | 37.67802 | -3.12645 | 33087 ft | 420 kts | 312° |
| 2026-05-06 11:02 | 37.70065 | -3.15003 | 33414 ft | 422 kts | 312° |
| 2026-05-06 11:03 | 37.72330 | -3.17363 | 33820 ft | 421 kts | 312° |
| 2026-05-06 11:03 | 37.73826 | -3.18924 | 34112 ft | 420 kts | 312° |
| 2026-05-06 11:03 | 37.76808 | -3.22038 | 34603 ft | 420 kts | 312° |
| 2026-05-06 11:03 | 37.79070 | -3.24400 | 34946 ft | 419 kts | 312° |
| 2026-05-06 11:04 | 37.80558 | -3.25956 | 35169 ft | 419 kts | 312° |
| 2026-05-06 11:04 | 37.82809 | -3.28310 | 35499 ft | 419 kts | 312° |
| 2026-05-06 11:04 | 37.85048 | -3.30655 | 35836 ft | 419 kts | 312° |
| 2026-05-06 11:04 | 37.87292 | -3.33006 | 36140 ft | 419 kts | 312° |
| 2026-05-06 11:05 | 37.89534 | -3.35358 | 36443 ft | 418 kts | 312° |
| 2026-05-06 11:05 | 37.91778 | -3.37714 | 36726 ft | 419 kts | 312° |
| 2026-05-06 11:05 | 37.94026 | -3.40076 | 37011 ft | 418 kts | 312° |
| 2026-05-06 11:05 | 37.96242 | -3.42406 | 37276 ft | 419 kts | 312° |
| 2026-05-06 11:06 | 37.98487 | -3.44767 | 37525 ft | 419 kts | 312° |
| 2026-05-06 11:06 | 38.00733 | -3.47132 | 37786 ft | 419 kts | 312° |
| 2026-05-06 11:06 | 38.02974 | -3.49495 | 38060 ft | 418 kts | 312° |
| 2026-05-06 11:06 | 38.05215 | -3.51858 | 38296 ft | 419 kts | 312° |
| 2026-05-06 11:07 | 38.07461 | -3.54230 | 38529 ft | 419 kts | 312° |
| 2026-05-06 11:07 | 38.09701 | -3.56597 | 38724 ft | 419 kts | 312° |
| 2026-05-06 11:07 | 38.11920 | -3.58927 | 38881 ft | 420 kts | 314° |
| 2026-05-06 11:07 | 38.14439 | -3.60910 | 39026 ft | 435 kts | 330° |
| 2026-05-06 11:08 | 38.17405 | -3.61918 | 39206 ft | 451 kts | 347° |
| 2026-05-06 11:08 | 38.20595 | -3.61914 | 39320 ft | 464 kts | 358° |
| 2026-05-06 11:08 | 38.23821 | -3.61580 | 39415 ft | 464 kts | 356° |
| 2026-05-06 11:08 | 38.27062 | -3.61307 | 39549 ft | 465 kts | 356° |
| 2026-05-06 11:09 | 38.30293 | -3.61012 | 39698 ft | 465 kts | 357° |
| 2026-05-06 11:09 | 38.33525 | -3.60705 | 39861 ft | 465 kts | 357° |
| 2026-05-06 11:09 | 38.36722 | -3.60397 | 39952 ft | 466 kts | 357° |
| 2026-05-06 11:10 | 38.43184 | -3.59771 | 39943 ft | 464 kts | 357° |
| 2026-05-06 11:10 | 38.49607 | -3.59147 | 39950 ft | 464 kts | 357° |
| 2026-05-06 11:11 | 38.56067 | -3.58520 | 39952 ft | 465 kts | 357° |
| 2026-05-06 11:11 | 38.62526 | -3.57890 | 39956 ft | 464 kts | 357° |
| 2026-05-06 11:12 | 38.68951 | -3.57263 | 39954 ft | 465 kts | 357° |
| 2026-05-06 11:12 | 38.75409 | -3.56631 | 39958 ft | 465 kts | 357° |
| 2026-05-06 11:13 | 38.81871 | -3.55998 | 39958 ft | 465 kts | 357° |
| 2026-05-06 11:13 | 38.88312 | -3.55366 | 39961 ft | 466 kts | 358° |
| 2026-05-06 11:14 | 38.94795 | -3.54728 | 39960 ft | 466 kts | 358° |
| 2026-05-06 11:14 | 39.01228 | -3.54092 | 39963 ft | 466 kts | 358° |
| 2026-05-06 11:15 | 39.07717 | -3.53448 | 39960 ft | 467 kts | 358° |
| 2026-05-06 11:15 | 39.14201 | -3.52803 | 39965 ft | 467 kts | 358° |
| 2026-05-06 11:16 | 39.20687 | -3.52157 | 39968 ft | 467 kts | 358° |
| 2026-05-06 11:16 | 39.27147 | -3.51512 | 39971 ft | 467 kts | 358° |
| 2026-05-06 11:17 | 39.33636 | -3.50863 | 39966 ft | 467 kts | 358° |
| 2026-05-06 11:17 | 39.40126 | -3.50212 | 39964 ft | 467 kts | 358° |
| 2026-05-06 11:18 | 39.46579 | -3.49565 | 39967 ft | 467 kts | 358° |
| 2026-05-06 11:18 | 39.53075 | -3.48911 | 39970 ft | 467 kts | 358° |
| 2026-05-06 11:19 | 39.59530 | -3.48264 | 39971 ft | 467 kts | 358° |
| 2026-05-06 11:19 | 39.66017 | -3.47613 | 39975 ft | 467 kts | 358° |
| 2026-05-06 11:20 | 39.72506 | -3.46962 | 39979 ft | 466 kts | 358° |
| 2026-05-06 11:20 | 39.78982 | -3.46164 | 39971 ft | 470 kts | 4° |
| 2026-05-06 11:21 | 39.85398 | -3.44779 | 39980 ft | 470 kts | 3° |
| 2026-05-06 11:21 | 39.91867 | -3.43488 | 39988 ft | 469 kts | 3° |
| 2026-05-06 11:22 | 39.98329 | -3.42205 | 39985 ft | 469 kts | 3° |
| 2026-05-06 11:22 | 40.04768 | -3.40924 | 39993 ft | 469 kts | 3° |
| 2026-05-06 11:23 | 40.11183 | -3.39644 | 39991 ft | 468 kts | 3° |
| 2026-05-06 11:23 | 40.17645 | -3.38353 | 39993 ft | 468 kts | 3° |
| 2026-05-06 11:24 | 40.24059 | -3.37068 | 39994 ft | 468 kts | 3° |
| 2026-05-06 11:24 | 40.30436 | -3.35789 | 39994 ft | 468 kts | 3° |
| 2026-05-06 11:25 | 40.36884 | -3.34494 | 39992 ft | 468 kts | 3° |
| 2026-05-06 11:25 | 40.43334 | -3.33194 | 39998 ft | 468 kts | 4° |
| 2026-05-06 11:26 | 40.49733 | -3.31904 | 39997 ft | 467 kts | 4° |
| 2026-05-06 11:26 | 40.56187 | -3.30599 | 40000 ft | 467 kts | 4° |
| 2026-05-06 11:27 | 40.62587 | -3.29303 | 39995 ft | 467 kts | 4° |
| 2026-05-06 11:27 | 40.69027 | -3.27996 | 39997 ft | 467 kts | 4° |
| 2026-05-06 11:28 | 40.75414 | -3.26697 | 39990 ft | 466 kts | 4° |
| 2026-05-06 11:28 | 40.81835 | -3.25389 | 39990 ft | 467 kts | 4° |
| 2026-05-06 11:29 | 40.88266 | -3.23993 | 40031 ft | 466 kts | 5° |
| 2026-05-06 11:29 | 40.94619 | -3.22572 | 40002 ft | 460 kts | 5° |
| 2026-05-06 11:30 | 41.00903 | -3.21168 | 39988 ft | 461 kts | 5° |
| 2026-05-06 11:30 | 41.07245 | -3.19748 | 39996 ft | 462 kts | 5° |
| 2026-05-06 11:31 | 41.13593 | -3.18323 | 39992 ft | 461 kts | 5° |
| 2026-05-06 11:31 | 41.19932 | -3.16898 | 39991 ft | 462 kts | 5° |
| 2026-05-06 11:32 | 41.26234 | -3.15479 | 39995 ft | 461 kts | 5° |
| 2026-05-06 11:32 | 41.32586 | -3.14045 | 39993 ft | 462 kts | 5° |
| 2026-05-06 11:33 | 41.38891 | -3.12619 | 39995 ft | 462 kts | 5° |
| 2026-05-06 11:33 | 41.45225 | -3.11184 | 39997 ft | 461 kts | 5° |
| 2026-05-06 11:34 | 41.51561 | -3.09747 | 39999 ft | 461 kts | 5° |
| 2026-05-06 11:34 | 41.57848 | -3.08322 | 39990 ft | 460 kts | 6° |
| 2026-05-06 11:35 | 41.64177 | -3.06884 | 39996 ft | 460 kts | 6° |
| 2026-05-06 11:35 | 41.70489 | -3.05447 | 39993 ft | 460 kts | 6° |
| 2026-05-06 11:36 | 41.76806 | -3.03997 | 39993 ft | 460 kts | 6° |
| 2026-05-06 11:36 | 41.83104 | -3.02547 | 39989 ft | 460 kts | 6° |
| 2026-05-06 11:37 | 41.89418 | -3.01091 | 39988 ft | 460 kts | 6° |
| 2026-05-06 11:37 | 41.95699 | -2.99639 | 39987 ft | 459 kts | 6° |
| 2026-05-06 11:38 | 42.02006 | -2.98179 | 39995 ft | 459 kts | 6° |
| 2026-05-06 11:38 | 42.08284 | -2.96723 | 39989 ft | 459 kts | 6° |
| 2026-05-06 11:39 | 42.14585 | -2.95258 | 39990 ft | 459 kts | 6° |
| 2026-05-06 11:39 | 42.20879 | -2.93791 | 39987 ft | 458 kts | 6° |
| 2026-05-06 11:40 | 42.27170 | -2.92323 | 39999 ft | 458 kts | 6° |
| 2026-05-06 11:40 | 42.33416 | -2.90862 | 40008 ft | 458 kts | 6° |
| 2026-05-06 11:41 | 42.39709 | -2.89388 | 40007 ft | 458 kts | 6° |
| 2026-05-06 11:41 | 42.45764 | -2.86895 | 39994 ft | 465 kts | 29° |
| 2026-05-06 11:42 | 42.50828 | -2.81334 | 40005 ft | 471 kts | 38° |
| 2026-05-06 11:42 | 42.55786 | -2.75470 | 40025 ft | 473 kts | 39° |
| 2026-05-06 11:43 | 42.60682 | -2.69575 | 40020 ft | 472 kts | 39° |
| 2026-05-06 11:43 | 42.65591 | -2.63636 | 40020 ft | 472 kts | 39° |
| 2026-05-06 11:44 | 42.72963 | -2.54692 | 40025 ft | 472 kts | 39° |
| 2026-05-06 11:44 | 42.77841 | -2.48757 | 40022 ft | 472 kts | 39° |
| 2026-05-06 11:45 | 42.82742 | -2.42781 | 40026 ft | 472 kts | 39° |
| 2026-05-06 11:45 | 42.87644 | -2.36791 | 40025 ft | 472 kts | 39° |
| 2026-05-06 11:46 | 42.92511 | -2.30830 | 40032 ft | 472 kts | 40° |
| 2026-05-06 11:46 | 42.97238 | -2.25029 | 40032 ft | 471 kts | 40° |
| 2026-05-06 11:47 | 43.02112 | -2.19023 | 40043 ft | 472 kts | 40° |
| 2026-05-06 11:47 | 43.06986 | -2.13006 | 40042 ft | 471 kts | 40° |
| 2026-05-06 11:48 | 43.11839 | -2.07005 | 40044 ft | 471 kts | 40° |
| 2026-05-06 11:48 | 43.16705 | -2.00976 | 40039 ft | 471 kts | 40° |
| 2026-05-06 11:49 | 43.21545 | -1.94966 | 40048 ft | 472 kts | 40° |
| 2026-05-06 11:49 | 43.26413 | -1.88908 | 40056 ft | 472 kts | 40° |
| 2026-05-06 11:50 | 43.31299 | -1.82949 | 40044 ft | 470 kts | 33° |
| 2026-05-06 11:50 | 43.36928 | -1.78519 | 40041 ft | 468 kts | 30° |
| 2026-05-06 11:51 | 43.42355 | -1.73504 | 40050 ft | 469 kts | 31° |
| 2026-05-06 11:51 | 43.47781 | -1.68592 | 40022 ft | 469 kts | 31° |
| 2026-05-06 11:52 | 43.52363 | -1.64458 | 40022 ft | 469 kts | 31° |
| 2026-05-06 11:52 | 43.57789 | -1.59550 | 40023 ft | 469 kts | 31° |
| 2026-05-06 11:53 | 43.63250 | -1.54599 | 40022 ft | 469 kts | 31° |
| 2026-05-06 11:53 | 43.68680 | -1.49667 | 40016 ft | 469 kts | 31° |
| 2026-05-06 11:54 | 43.74154 | -1.44683 | 40018 ft | 469 kts | 31° |
| 2026-05-06 11:54 | 43.79582 | -1.39728 | 40004 ft | 469 kts | 31° |
| 2026-05-06 11:55 | 43.85049 | -1.34728 | 39992 ft | 469 kts | 31° |
| 2026-05-06 11:55 | 43.90479 | -1.29751 | 40005 ft | 470 kts | 31° |
| 2026-05-06 11:56 | 43.95947 | -1.24728 | 39991 ft | 470 kts | 32° |
| 2026-05-06 11:56 | 44.01365 | -1.19740 | 39980 ft | 469 kts | 32° |
| 2026-05-06 11:57 | 44.06804 | -1.14720 | 39988 ft | 469 kts | 32° |
| 2026-05-06 11:57 | 44.12238 | -1.09695 | 39985 ft | 469 kts | 32° |
| 2026-05-06 11:58 | 44.17680 | -1.04650 | 39959 ft | 468 kts | 32° |
| 2026-05-06 11:58 | 44.22413 | -1.00254 | 39977 ft | 469 kts | 32° |
| 2026-05-06 11:59 | 44.27354 | -0.95655 | 39964 ft | 468 kts | 32° |
| 2026-05-06 11:59 | 44.32782 | -0.90593 | 39969 ft | 469 kts | 32° |
| 2026-05-06 12:00 | 44.38179 | -0.85550 | 39968 ft | 469 kts | 32° |
| 2026-05-06 12:00 | 44.43956 | -0.81464 | 39970 ft | 464 kts | 20° |
| 2026-05-06 12:01 | 44.49917 | -0.77855 | 39966 ft | 466 kts | 21° |
| 2026-05-06 12:01 | 44.55833 | -0.74236 | 39952 ft | 466 kts | 21° |
| 2026-05-06 12:02 | 44.61782 | -0.70594 | 39947 ft | 466 kts | 21° |
| 2026-05-06 12:02 | 44.67730 | -0.66945 | 39944 ft | 466 kts | 22° |
| 2026-05-06 12:03 | 44.73639 | -0.63313 | 39939 ft | 465 kts | 22° |
| 2026-05-06 12:03 | 44.79590 | -0.59645 | 39943 ft | 466 kts | 22° |
| 2026-05-06 12:04 | 44.85490 | -0.56001 | 39940 ft | 465 kts | 22° |
| 2026-05-06 12:04 | 44.91429 | -0.52324 | 39939 ft | 465 kts | 22° |
| 2026-05-06 12:05 | 44.97337 | -0.48659 | 39932 ft | 465 kts | 22° |
| 2026-05-06 12:05 | 45.03278 | -0.44965 | 39934 ft | 465 kts | 22° |
| 2026-05-06 12:06 | 45.09213 | -0.41265 | 39931 ft | 465 kts | 22° |
| 2026-05-06 12:06 | 45.15094 | -0.37592 | 39922 ft | 465 kts | 22° |
| 2026-05-06 12:07 | 45.21026 | -0.33878 | 39919 ft | 465 kts | 22° |
| 2026-05-06 12:07 | 45.26941 | -0.30166 | 39922 ft | 465 kts | 22° |
| 2026-05-06 12:08 | 45.32826 | -0.26465 | 39911 ft | 464 kts | 22° |
| 2026-05-06 12:08 | 45.38742 | -0.22735 | 39905 ft | 465 kts | 22° |
| 2026-05-06 12:09 | 45.44659 | -0.18997 | 39904 ft | 465 kts | 22° |
| 2026-05-06 12:09 | 45.50547 | -0.15267 | 39909 ft | 465 kts | 22° |
| 2026-05-06 12:10 | 45.56471 | -0.11507 | 39914 ft | 464 kts | 22° |
| 2026-05-06 12:10 | 45.62378 | -0.07749 | 39918 ft | 464 kts | 22° |
| 2026-05-06 12:11 | 45.68252 | -0.04003 | 39908 ft | 464 kts | 22° |
| 2026-05-06 12:11 | 45.74165 | -0.00223 | 39904 ft | 464 kts | 23° |
| 2026-05-06 12:12 | 45.80069 | 0.03559 | 39913 ft | 464 kts | 23° |
| 2026-05-06 12:12 | 45.85946 | 0.07333 | 39910 ft | 464 kts | 23° |
| 2026-05-06 12:13 | 45.91856 | 0.11137 | 39913 ft | 464 kts | 23° |
| 2026-05-06 12:13 | 45.97729 | 0.14927 | 39908 ft | 464 kts | 23° |
| 2026-05-06 12:14 | 46.03597 | 0.18720 | 39923 ft | 464 kts | 23° |
| 2026-05-06 12:14 | 46.09494 | 0.22543 | 39888 ft | 463 kts | 23° |
| 2026-05-06 12:15 | 46.15378 | 0.26367 | 39908 ft | 464 kts | 23° |
| 2026-05-06 12:15 | 46.21267 | 0.30202 | 39912 ft | 464 kts | 23° |
| 2026-05-06 12:16 | 46.27118 | 0.34021 | 39920 ft | 464 kts | 23° |
| 2026-05-06 12:16 | 46.32969 | 0.37850 | 39906 ft | 463 kts | 23° |
| 2026-05-06 12:17 | 46.38853 | 0.41708 | 39909 ft | 464 kts | 23° |
| 2026-05-06 12:17 | 46.44735 | 0.45573 | 39909 ft | 464 kts | 23° |
| 2026-05-06 12:18 | 46.50253 | 0.49208 | 39910 ft | 464 kts | 23° |
| 2026-05-06 12:18 | 46.56168 | 0.53013 | 39910 ft | 463 kts | 17° |
| 2026-05-06 12:19 | 46.62423 | 0.55103 | 39912 ft | 461 kts | 12° |
| 2026-05-06 12:19 | 46.68660 | 0.57204 | 39917 ft | 462 kts | 12° |
| 2026-05-06 12:20 | 46.74946 | 0.59282 | 39916 ft | 462 kts | 11° |
| 2026-05-06 12:20 | 46.81180 | 0.61344 | 39918 ft | 462 kts | 12° |
| 2026-05-06 12:21 | 46.87465 | 0.63428 | 39923 ft | 462 kts | 12° |
| 2026-05-06 12:21 | 46.93748 | 0.65516 | 39924 ft | 462 kts | 12° |
| 2026-05-06 12:22 | 47.00018 | 0.67605 | 39924 ft | 462 kts | 12° |
| 2026-05-06 12:22 | 47.06311 | 0.69372 | 39922 ft | 459 kts | 1° |
| 2026-05-06 12:23 | 47.12298 | 0.69939 | 39929 ft | 460 kts | 3° |
| 2026-05-06 12:23 | 47.18685 | 0.70619 | 39937 ft | 460 kts | 3° |
| 2026-05-06 12:24 | 47.25091 | 0.71289 | 39937 ft | 460 kts | 3° |
| 2026-05-06 12:24 | 47.31502 | 0.71960 | 39946 ft | 460 kts | 3° |
| 2026-05-06 12:25 | 47.37869 | 0.72628 | 39941 ft | 461 kts | 2° |
| 2026-05-06 12:25 | 47.44279 | 0.73303 | 39940 ft | 461 kts | 2° |
| 2026-05-06 12:26 | 47.50622 | 0.74323 | 39923 ft | 461 kts | 16° |
| 2026-05-06 12:26 | 47.56656 | 0.77438 | 39940 ft | 462 kts | 17° |
| 2026-05-06 12:27 | 47.62755 | 0.80354 | 39941 ft | 463 kts | 17° |
| 2026-05-06 12:27 | 47.68875 | 0.83365 | 39944 ft | 463 kts | 17° |
| 2026-05-06 12:28 | 47.75003 | 0.86395 | 39942 ft | 463 kts | 17° |
| 2026-05-06 12:28 | 47.81083 | 0.89410 | 39944 ft | 463 kts | 17° |
| 2026-05-06 12:29 | 47.87199 | 0.92482 | 39946 ft | 463 kts | 18° |
| 2026-05-06 12:29 | 47.93276 | 0.95551 | 39943 ft | 463 kts | 18° |
| 2026-05-06 12:30 | 47.99394 | 0.98647 | 39943 ft | 463 kts | 18° |
| 2026-05-06 12:30 | 48.05476 | 1.01733 | 39943 ft | 463 kts | 18° |
| 2026-05-06 12:31 | 48.11589 | 1.04841 | 39943 ft | 463 kts | 18° |
| 2026-05-06 12:31 | 48.17699 | 1.07957 | 39940 ft | 463 kts | 18° |
| 2026-05-06 12:32 | 48.23775 | 1.11052 | 39939 ft | 463 kts | 18° |
| 2026-05-06 12:32 | 48.29893 | 1.14171 | 39938 ft | 463 kts | 18° |
| 2026-05-06 12:33 | 48.36002 | 1.17293 | 39937 ft | 463 kts | 18° |
| 2026-05-06 12:33 | 48.42095 | 1.20415 | 39935 ft | 463 kts | 18° |
| 2026-05-06 12:34 | 48.48161 | 1.23531 | 39933 ft | 463 kts | 18° |
| 2026-05-06 12:34 | 48.54274 | 1.26673 | 39931 ft | 463 kts | 18° |
| 2026-05-06 12:35 | 48.60358 | 1.29730 | 39935 ft | 463 kts | 17° |
| 2026-05-06 12:35 | 48.66483 | 1.32820 | 39927 ft | 463 kts | 17° |
| 2026-05-06 12:36 | 48.72258 | 1.35742 | 39938 ft | 462 kts | 18° |
| 2026-05-06 12:36 | 48.78371 | 1.38842 | 39931 ft | 463 kts | 18° |
| 2026-05-06 12:37 | 48.84484 | 1.41951 | 39933 ft | 463 kts | 18° |
| 2026-05-06 12:37 | 48.90584 | 1.45061 | 39933 ft | 463 kts | 18° |
| 2026-05-06 12:38 | 48.95659 | 1.47653 | 39937 ft | 463 kts | 18° |
| 2026-05-06 12:38 | 48.99804 | 1.49174 | 39931 ft | 460 kts | 6° |
| 2026-05-06 12:38 | 49.02983 | 1.49847 | 39933 ft | 462 kts | 8° |
| 2026-05-06 12:39 | 49.08272 | 1.51110 | 39935 ft | 462 kts | 7° |
| 2026-05-06 12:39 | 49.15681 | 1.52848 | 39927 ft | 462 kts | 7° |
| 2026-05-06 12:40 | 49.21017 | 1.54099 | 39925 ft | 462 kts | 7° |
| 2026-05-06 12:40 | 49.27029 | 1.57134 | 39906 ft | 461 kts | 35° |
| 2026-05-06 12:41 | 49.31813 | 1.63722 | 39922 ft | 465 kts | 42° |
| 2026-05-06 12:41 | 49.36551 | 1.70522 | 39924 ft | 467 kts | 43° |
| 2026-05-06 12:42 | 49.41255 | 1.77398 | 39916 ft | 467 kts | 43° |
| 2026-05-06 12:42 | 49.45953 | 1.84304 | 39913 ft | 467 kts | 43° |
| 2026-05-06 12:43 | 49.50646 | 1.91219 | 39269 ft | 466 kts | 44° |
| 2026-05-06 12:43 | 49.52984 | 1.94676 | 38437 ft | 466 kts | 44° |
| 2026-05-06 12:43 | 49.55286 | 1.98083 | 37773 ft | 463 kts | 44° |
| 2026-05-06 12:44 | 49.57599 | 2.01511 | 37328 ft | 457 kts | 44° |
| 2026-05-06 12:44 | 49.59879 | 2.04894 | 36853 ft | 452 kts | 44° |
| 2026-05-06 12:44 | 49.62140 | 2.08254 | 36314 ft | 449 kts | 44° |
| 2026-05-06 12:44 | 49.64390 | 2.11601 | 35780 ft | 446 kts | 44° |
| 2026-05-06 12:45 | 49.66596 | 2.14888 | 35286 ft | 443 kts | 44° |
| 2026-05-06 12:45 | 49.68811 | 2.18193 | 34769 ft | 440 kts | 44° |
| 2026-05-06 12:45 | 49.73197 | 2.24748 | 33738 ft | 434 kts | 44° |
| 2026-05-06 12:46 | 49.75333 | 2.27948 | 33172 ft | 431 kts | 44° |
| 2026-05-06 12:46 | 49.77478 | 2.31165 | 32664 ft | 426 kts | 44° |
| 2026-05-06 12:46 | 49.79600 | 2.34352 | 32210 ft | 421 kts | 44° |
| 2026-05-06 12:46 | 49.81692 | 2.37498 | 31750 ft | 417 kts | 44° |
| 2026-05-06 12:47 | 49.83759 | 2.40609 | 31278 ft | 409 kts | 44° |
| 2026-05-06 12:47 | 49.85767 | 2.43636 | 30854 ft | 396 kts | 44° |
| 2026-05-06 12:47 | 49.87710 | 2.46566 | 30417 ft | 384 kts | 44° |
| 2026-05-06 12:47 | 49.89595 | 2.49416 | 30006 ft | 373 kts | 44° |
| 2026-05-06 12:48 | 49.91411 | 2.52164 | 29543 ft | 362 kts | 44° |
| 2026-05-06 12:48 | 49.93191 | 2.54858 | 29130 ft | 352 kts | 44° |
| 2026-05-06 12:48 | 49.94939 | 2.57507 | 28757 ft | 349 kts | 44° |
| 2026-05-06 12:48 | 49.96674 | 2.60143 | 28281 ft | 348 kts | 44° |
| 2026-05-06 12:49 | 49.98409 | 2.62780 | 27918 ft | 345 kts | 44° |
| 2026-05-06 12:49 | 50.00096 | 2.65348 | 27579 ft | 342 kts | 45° |
| 2026-05-06 12:49 | 50.01805 | 2.67951 | 27213 ft | 345 kts | 45° |
| 2026-05-06 12:49 | 50.03531 | 2.70583 | 26836 ft | 349 kts | 45° |
| 2026-05-06 12:50 | 50.05273 | 2.73240 | 26466 ft | 350 kts | 45° |
| 2026-05-06 12:50 | 50.07008 | 2.75892 | 26097 ft | 349 kts | 45° |
| 2026-05-06 12:50 | 50.08743 | 2.78545 | 25724 ft | 348 kts | 45° |
| 2026-05-06 12:50 | 50.10466 | 2.81183 | 25347 ft | 346 kts | 45° |
| 2026-05-06 12:51 | 50.12158 | 2.83777 | 24983 ft | 344 kts | 45° |
| 2026-05-06 12:51 | 50.13866 | 2.86398 | 24618 ft | 343 kts | 45° |
| 2026-05-06 12:51 | 50.15569 | 2.89013 | 24251 ft | 341 kts | 45° |
| 2026-05-06 12:51 | 50.17236 | 2.91577 | 23894 ft | 340 kts | 44° |
| 2026-05-06 12:52 | 50.18918 | 2.94166 | 23531 ft | 339 kts | 44° |
| 2026-05-06 12:52 | 50.20596 | 2.96752 | 23117 ft | 338 kts | 44° |
| 2026-05-06 12:52 | 50.22264 | 2.99324 | 22721 ft | 336 kts | 44° |
| 2026-05-06 12:52 | 50.23921 | 3.01883 | 22365 ft | 333 kts | 44° |
| 2026-05-06 12:53 | 50.25558 | 3.04414 | 22014 ft | 330 kts | 44° |
| 2026-05-06 12:53 | 50.27187 | 3.06934 | 21663 ft | 328 kts | 44° |
| 2026-05-06 12:53 | 50.28781 | 3.09404 | 21324 ft | 325 kts | 44° |
| 2026-05-06 12:53 | 50.30386 | 3.11892 | 20984 ft | 323 kts | 44° |
| 2026-05-06 12:54 | 50.31976 | 3.14359 | 20643 ft | 321 kts | 44° |
| 2026-05-06 12:54 | 50.33557 | 3.16815 | 20306 ft | 319 kts | 44° |
| 2026-05-06 12:54 | 50.35132 | 3.19264 | 19966 ft | 318 kts | 44° |
| 2026-05-06 12:54 | 50.36696 | 3.21698 | 19633 ft | 316 kts | 44° |
| 2026-05-06 12:55 | 50.38249 | 3.24117 | 19303 ft | 314 kts | 44° |
| 2026-05-06 12:55 | 50.39799 | 3.26532 | 18969 ft | 313 kts | 44° |
| 2026-05-06 12:55 | 50.41345 | 3.28948 | 18596 ft | 313 kts | 44° |
| 2026-05-06 12:55 | 50.42873 | 3.31333 | 18276 ft | 312 kts | 43° |
| 2026-05-06 12:56 | 50.44404 | 3.33727 | 17915 ft | 311 kts | 43° |
| 2026-05-06 12:56 | 50.45931 | 3.36117 | 17568 ft | 309 kts | 43° |
| 2026-05-06 12:56 | 50.47451 | 3.38497 | 17225 ft | 306 kts | 44° |
| 2026-05-06 12:56 | 50.48953 | 3.40851 | 16899 ft | 304 kts | 44° |
| 2026-05-06 12:57 | 50.50448 | 3.43198 | 16573 ft | 302 kts | 44° |
| 2026-05-06 12:57 | 50.51930 | 3.45523 | 16255 ft | 299 kts | 44° |
| 2026-05-06 12:57 | 50.53395 | 3.47830 | 15950 ft | 297 kts | 45° |
| 2026-05-06 12:57 | 50.54577 | 3.50426 | 15682 ft | 297 kts | 66° |
| 2026-05-06 12:58 | 50.55232 | 3.53536 | 15472 ft | 300 kts | 71° |
| 2026-05-06 12:58 | 50.55860 | 3.56666 | 15258 ft | 300 kts | 72° |
| 2026-05-06 12:58 | 50.56477 | 3.59804 | 15028 ft | 298 kts | 72° |
| 2026-05-06 12:58 | 50.57081 | 3.62932 | 14792 ft | 297 kts | 72° |
| 2026-05-06 12:59 | 50.57673 | 3.66032 | 14561 ft | 295 kts | 72° |
| 2026-05-06 12:59 | 50.58259 | 3.69121 | 14331 ft | 294 kts | 72° |
| 2026-05-06 12:59 | 50.58841 | 3.72207 | 14098 ft | 293 kts | 72° |
| 2026-05-06 12:59 | 50.59412 | 3.75239 | 13877 ft | 292 kts | 72° |
| 2026-05-06 13:00 | 50.59986 | 3.78300 | 13636 ft | 291 kts | 72° |
| 2026-05-06 13:00 | 50.60560 | 3.81359 | 13379 ft | 289 kts | 72° |
| 2026-05-06 13:00 | 50.61119 | 3.84349 | 13148 ft | 287 kts | 72° |
| 2026-05-06 13:00 | 50.61681 | 3.87358 | 12922 ft | 285 kts | 72° |
| 2026-05-06 13:01 | 50.62242 | 3.90364 | 12688 ft | 284 kts | 72° |
| 2026-05-06 13:01 | 50.62799 | 3.93356 | 12472 ft | 284 kts | 72° |
| 2026-05-06 13:01 | 50.63352 | 3.96331 | 12244 ft | 283 kts | 72° |
| 2026-05-06 13:01 | 50.63904 | 3.99303 | 12029 ft | 282 kts | 72° |
| 2026-05-06 13:02 | 50.64448 | 4.02239 | 11808 ft | 281 kts | 72° |
| 2026-05-06 13:02 | 50.64993 | 4.05186 | 11583 ft | 280 kts | 72° |
| 2026-05-06 13:02 | 50.65539 | 4.08138 | 11370 ft | 279 kts | 72° |
| 2026-05-06 13:03 | 50.65939 | 4.10309 | 11206 ft | 279 kts | 72° |
| 2026-05-06 13:03 | 50.66460 | 4.13139 | 10995 ft | 278 kts | 72° |
| 2026-05-06 13:03 | 50.67000 | 4.16075 | 10781 ft | 278 kts | 72° |
| 2026-05-06 13:03 | 50.67533 | 4.18975 | 10542 ft | 278 kts | 72° |
| 2026-05-06 13:04 | 50.68070 | 4.21895 | 10344 ft | 277 kts | 72° |
| 2026-05-06 13:04 | 50.68542 | 4.24839 | 10098 ft | 277 kts | 83° |
| 2026-05-06 13:04 | 50.68327 | 4.27813 | 9839 ft | 278 kts | 110° |
| 2026-05-06 13:04 | 50.67283 | 4.30347 | 9623 ft | 277 kts | 136° |
| 2026-05-06 13:05 | 50.65695 | 4.32058 | 9405 ft | 277 kts | 151° |
| 2026-05-06 13:05 | 50.64015 | 4.33525 | 9194 ft | 277 kts | 151° |
| 2026-05-06 13:05 | 50.62323 | 4.34986 | 8958 ft | 276 kts | 151° |
| 2026-05-06 13:05 | 50.60637 | 4.36425 | 8739 ft | 275 kts | 151° |
| 2026-05-06 13:06 | 50.58947 | 4.37855 | 8517 ft | 275 kts | 151° |
| 2026-05-06 13:06 | 50.57284 | 4.39255 | 8309 ft | 274 kts | 151° |
| 2026-05-06 13:06 | 50.55594 | 4.40672 | 8105 ft | 273 kts | 151° |
| 2026-05-06 13:06 | 50.53918 | 4.42074 | 7875 ft | 273 kts | 151° |
| 2026-05-06 13:07 | 50.52240 | 4.43477 | 7663 ft | 273 kts | 151° |
| 2026-05-06 13:07 | 50.50564 | 4.44877 | 7446 ft | 272 kts | 151° |
| 2026-05-06 13:07 | 50.48890 | 4.46274 | 7232 ft | 272 kts | 150° |
| 2026-05-06 13:07 | 50.47350 | 4.47895 | 6990 ft | 269 kts | 130° |
| 2026-05-06 13:08 | 50.46459 | 4.50403 | 6774 ft | 262 kts | 103° |
| 2026-05-06 13:08 | 50.46054 | 4.53182 | 6601 ft | 260 kts | 100° |
| 2026-05-06 13:08 | 50.45655 | 4.55964 | 6403 ft | 260 kts | 100° |
| 2026-05-06 13:08 | 50.45263 | 4.58738 | 6188 ft | 260 kts | 99° |
| 2026-05-06 13:09 | 50.44883 | 4.61470 | 5995 ft | 259 kts | 99° |
| 2026-05-06 13:09 | 50.44502 | 4.64225 | 5770 ft | 257 kts | 99° |
| 2026-05-06 13:09 | 50.44129 | 4.66934 | 5562 ft | 251 kts | 99° |
| 2026-05-06 13:09 | 50.44068 | 4.69591 | 5332 ft | 240 kts | 73° |
| 2026-05-06 13:10 | 50.44663 | 4.71975 | 5164 ft | 230 kts | 64° |
| 2026-05-06 13:10 | 50.45291 | 4.74239 | 5010 ft | 223 kts | 64° |
| 2026-05-06 13:10 | 50.45909 | 4.76441 | 4835 ft | 216 kts | 63° |
| 2026-05-06 13:10 | 50.46624 | 4.78436 | 4664 ft | 205 kts | 44° |
| 2026-05-06 13:11 | 50.47808 | 4.79513 | 4510 ft | 195 kts | 13° |
| 2026-05-06 13:11 | 50.49131 | 4.79472 | 4348 ft | 190 kts | 346° |
| 2026-05-06 13:11 | 50.50346 | 4.78740 | 4196 ft | 184 kts | 340° |
| 2026-05-06 13:11 | 50.51503 | 4.77977 | 4052 ft | 182 kts | 339° |
| 2026-05-06 13:12 | 50.52668 | 4.77187 | 3919 ft | 181 kts | 338° |
| 2026-05-06 13:12 | 50.53637 | 4.75949 | 3754 ft | 185 kts | 305° |
| 2026-05-06 13:12 | 50.53959 | 4.74034 | 3658 ft | 181 kts | 270° |
| 2026-05-06 13:12 | 50.53690 | 4.72131 | 3535 ft | 177 kts | 255° |
| 2026-05-06 13:13 | 50.53233 | 4.70331 | 3401 ft | 177 kts | 250° |
| 2026-05-06 13:13 | 50.52739 | 4.68585 | 3267 ft | 175 kts | 250° |
| 2026-05-06 13:13 | 50.52230 | 4.66822 | 3126 ft | 174 kts | 249° |
| 2026-05-06 13:13 | 50.51734 | 4.65110 | 3023 ft | 174 kts | 250° |
| 2026-05-06 13:14 | 50.51230 | 4.63372 | 2872 ft | 175 kts | 250° |
| 2026-05-06 13:14 | 50.50723 | 4.61620 | 2661 ft | 175 kts | 249° |
| 2026-05-06 13:14 | 50.50218 | 4.59879 | 2434 ft | 176 kts | 249° |
| 2026-05-06 13:14 | 50.49720 | 4.58156 | 2222 ft | 174 kts | 249° |
| 2026-05-06 13:15 | 50.49226 | 4.56456 | 1968 ft | 166 kts | 249° |
| 2026-05-06 13:15 | 50.48763 | 4.54856 | 1756 ft | 157 kts | 250° |
| 2026-05-06 13:15 | 50.48321 | 4.53331 | 1548 ft | 152 kts | 250° |
| 2026-05-06 13:15 | 50.47887 | 4.51829 | 1344 ft | 150 kts | 250° |
| 2026-05-06 13:16 | 50.47455 | 4.50336 | 1110 ft | 149 kts | 249° |
| 2026-05-06 13:16 | 50.47029 | 4.48872 | 916 ft | 145 kts | 248° |
| 2026-05-06 13:16 | 50.46627 | 4.47431 | 1010 ft | 145 kts | 250° |
| 2026-05-06 13:16 | 50.46221 | 4.45965 | 1030 ft | 146 kts | 249° |
| 2026-05-06 13:17 | 50.45806 | 4.44512 | 1175 ft | 146 kts | 250° |
| 2026-05-06 13:17 | 50.45322 | 4.43081 | 1287 ft | 149 kts | 243° |
| 2026-05-06 13:17 | 50.44812 | 4.41672 | 1469 ft | 148 kts | 247° |
| 2026-05-06 13:17 | 50.44364 | 4.40209 | 1881 ft | 154 kts | 251° |
| 2026-05-06 13:18 | 50.43961 | 4.38638 | 2694 ft | 149 kts | 253° |
| 2026-05-06 13:18 | 50.43549 | 4.37016 | 3122 ft | 168 kts | 251° |
| 2026-05-06 13:18 | 50.43103 | 4.35308 | 3078 ft | 173 kts | 251° |
| 2026-05-06 13:18 | 50.42639 | 4.33543 | 2988 ft | 172 kts | 251° |
| 2026-05-06 13:19 | 50.42225 | 4.31823 | 2873 ft | 168 kts | 263° |
| 2026-05-06 13:19 | 50.42401 | 4.30113 | 2644 ft | 157 kts | 308° |
| 2026-05-06 13:19 | 50.43129 | 4.28881 | 2663 ft | 154 kts | 326° |
| 2026-05-06 13:19 | 50.44109 | 4.28324 | 2726 ft | 151 kts | 4° |
| 2026-05-06 13:20 | 50.45037 | 4.29003 | 2758 ft | 153 kts | 51° |
| 2026-05-06 13:20 | 50.45477 | 4.30571 | 2893 ft | 161 kts | 66° |
| 2026-05-06 13:20 | 50.45861 | 4.32278 | 2985 ft | 173 kts | 66° |
| 2026-05-06 13:20 | 50.46283 | 4.34121 | 2994 ft | 186 kts | 66° |
| 2026-05-06 13:21 | 50.46737 | 4.36060 | 3031 ft | 196 kts | 66° |
| 2026-05-06 13:21 | 50.47214 | 4.38103 | 3012 ft | 200 kts | 66° |
| 2026-05-06 13:21 | 50.47695 | 4.40155 | 3008 ft | 200 kts | 66° |
| 2026-05-06 13:21 | 50.48175 | 4.42218 | 2995 ft | 201 kts | 66° |
| 2026-05-06 13:22 | 50.48655 | 4.44285 | 3006 ft | 201 kts | 66° |
| 2026-05-06 13:22 | 50.49132 | 4.46343 | 2990 ft | 200 kts | 66° |
| 2026-05-06 13:22 | 50.49604 | 4.48409 | 2986 ft | 201 kts | 66° |
| 2026-05-06 13:22 | 50.50078 | 4.50477 | 2993 ft | 201 kts | 66° |
| 2026-05-06 13:23 | 50.50549 | 4.52515 | 2993 ft | 200 kts | 66° |
| 2026-05-06 13:23 | 50.51026 | 4.54582 | 3001 ft | 200 kts | 66° |
| 2026-05-06 13:23 | 50.51504 | 4.56646 | 2993 ft | 201 kts | 66° |
| 2026-05-06 13:23 | 50.51982 | 4.58709 | 2997 ft | 201 kts | 66° |
| 2026-05-06 13:24 | 50.52460 | 4.60770 | 2998 ft | 200 kts | 66° |
| 2026-05-06 13:24 | 50.52797 | 4.62804 | 2959 ft | 193 kts | 89° |
| 2026-05-06 13:24 | 50.52246 | 4.64642 | 2937 ft | 191 kts | 139° |
| 2026-05-06 13:24 | 50.51035 | 4.65178 | 2947 ft | 181 kts | 192° |
| 2026-05-06 13:25 | 50.50302 | 4.64603 | 2934 ft | 173 kts | 230° |
| 2026-05-06 13:25 | 50.49858 | 4.62975 | 2998 ft | 165 kts | 266° |
| 2026-05-06 13:25 | 50.49637 | 4.61112 | 2598 ft | 181 kts | 263° |
| 2026-05-06 13:25 | 50.49303 | 4.58533 | 2232 ft | 181 kts | 263° |
| 2026-05-06 13:26 | 50.49134 | 4.57244 | 2068 ft | 176 kts | 263° |
| 2026-05-06 13:26 | 50.48853 | 4.55405 | 1821 ft | 167 kts | 258° |
| 2026-05-06 13:26 | 50.48459 | 4.53777 | 1601 ft | 153 kts | 250° |
| 2026-05-06 13:26 | 50.48021 | 4.52285 | 1420 ft | 149 kts | 250° |
| 2026-05-06 13:27 | 50.47597 | 4.50824 | 1183 ft | 148 kts | 249° |
| 2026-05-06 13:27 | 50.47169 | 4.49355 | 970 ft | 146 kts | 249° |
| 2026-05-06 13:27 | 50.46764 | 4.47912 | 727 ft | 143 kts | 248° |
| 2026-05-06 13:27 | 50.46345 | 4.46512 | 602 ft | 135 kts | 245° |
| 2026-05-06 13:28 | 50.46031 | 4.45437 | 623 ft | 73 kts | 245° |
| 2026-05-06 13:28 | 50.45898 | 4.44992 | 627 ft | 20 kts | 246° |
| 2026-05-06 13:28 | 50.45887 | 4.44948 | 627 ft | 1 kts | 251° |
| 2026-05-06 13:28 | 50.45881 | 4.44912 | 618 ft | 4 kts | 259° |
| 2026-05-06 13:29 | 50.45880 | 4.44862 | 626 ft | 5 kts | 271° |
| 2026-05-06 13:29 | 50.45892 | 4.44817 | 630 ft | 6 kts | 320° |
| 2026-05-06 13:29 | 50.45958 | 4.44774 | 622 ft | 16 kts | 350° |
| 2026-05-06 13:29 | 50.46053 | 4.44900 | 627 ft | 23 kts | 65° |
| 2026-05-06 13:30 | 50.46130 | 4.45159 | 628 ft | 29 kts | 66° |
| 2026-05-06 13:30 | 50.46164 | 4.45279 | 625 ft | 2 kts | 66° |
| 2026-05-06 13:30 | 50.46189 | 4.45365 | 624 ft | 15 kts | 65° |
| 2026-05-06 13:30 | 50.46233 | 4.45516 | 623 ft | 1 kts | 65° |
| 2026-05-06 13:31 | 50.46252 | 4.45582 | 615 ft | 11 kts | 65° |
| 2026-05-06 13:31 | 50.46305 | 4.45768 | 615 ft | 26 kts | 65° |
| 2026-05-06 13:31 | 50.46401 | 4.46095 | 590 ft | 40 kts | 65° |
| 2026-05-06 13:31 | 50.46522 | 4.46515 | 584 ft | 22 kts | 65° |
| 2026-05-06 13:32 | 50.46599 | 4.46782 | 586 ft | 31 kts | 66° |
| 2026-05-06 13:32 | 50.46695 | 4.47106 | 583 ft | 35 kts | 65° |
| 2026-05-06 13:32 | 50.46779 | 4.47337 | 582 ft | 17 kts | 28° |
| 2026-05-06 13:32 | 50.46839 | 4.47339 | 582 ft | 10 kts | 1° |
| 2026-05-06 13:33 | 50.46891 | 4.47315 | 584 ft | 7 kts | 336° |
| 2026-05-06 13:33 | 50.46909 | 4.47301 | 584 ft | 0 kts | 335° |
| 2026-05-06 13:33 | 50.46919 | 4.47294 | 584 ft | 3 kts | 335° |
| 2026-05-06 13:33 | 50.46924 | 4.47291 | 583 ft | 1 kts | 335° |
| 2026-05-06 13:34 | 50.46926 | 4.47289 | 583 ft | 0 kts | 335° |